createdAt,value
2023-04-22T00:01:25.791Z,10.09
2023-04-22T00:03:52.920Z,9.97
2023-04-22T00:06:20.117Z,9.80
2023-04-22T00:08:46.876Z,9.72
2023-04-22T00:11:16.465Z,9.65
2023-04-22T00:13:43.060Z,9.90
2023-04-22T00:16:09.797Z,9.85
2023-04-22T00:18:36.447Z,9.77
2023-04-22T00:21:04.273Z,9.79
2023-04-22T00:23:30.903Z,9.74
2023-04-22T00:25:57.616Z,9.79
2023-04-22T00:28:24.389Z,10.05
2023-04-22T00:30:51.032Z,9.98
2023-04-22T00:33:17.894Z,9.84
2023-04-22T00:35:46.387Z,9.71
2023-04-22T00:38:13.181Z,9.61
2023-04-22T00:40:40.074Z,9.55
2023-04-22T00:43:09.005Z,9.81
2023-04-22T00:45:37.537Z,10.03
2023-04-22T00:48:04.622Z,9.95
2023-04-22T00:50:31.603Z,9.86
2023-04-22T00:52:58.219Z,9.83
2023-04-22T00:55:25.277Z,9.87
2023-04-22T00:57:52.467Z,9.76
2023-04-22T01:00:20.071Z,9.71
2023-04-22T01:02:48.119Z,9.74
2023-04-22T01:05:15.394Z,9.91
2023-04-22T01:07:42.169Z,9.87
2023-04-22T01:10:09.286Z,9.91
2023-04-22T01:12:35.935Z,9.89
2023-04-22T01:15:04.653Z,9.48
2023-04-22T01:17:32.202Z,9.39
2023-04-22T01:19:59.022Z,9.41
2023-04-22T01:22:27.095Z,9.25
2023-04-22T01:24:54.491Z,9.30
2023-04-22T01:27:21.297Z,9.38
2023-04-22T01:29:48.452Z,9.42
2023-04-22T01:32:15.543Z,9.46
2023-04-22T01:34:42.341Z,9.47
2023-04-22T01:37:09.225Z,9.56
2023-04-22T01:39:36.061Z,9.58
2023-04-22T01:42:03.273Z,9.64
2023-04-22T01:44:29.986Z,9.38
2023-04-22T01:46:56.703Z,9.46
2023-04-22T01:49:23.300Z,9.72
2023-04-22T01:51:50.005Z,9.41
2023-04-22T01:54:16.637Z,9.25
2023-04-22T01:56:50.289Z,9.32
2023-04-22T01:59:17.096Z,9.36
2023-04-22T02:01:43.894Z,9.54
2023-04-22T02:04:10.631Z,9.68
2023-04-22T02:06:37.333Z,9.77
2023-04-22T02:09:04.069Z,9.40
2023-04-22T02:11:30.938Z,9.55
2023-04-22T02:13:57.966Z,9.56
2023-04-22T02:16:24.706Z,9.60
2023-04-22T02:18:51.372Z,9.47
2023-04-22T02:21:17.996Z,9.56
2023-04-22T02:23:44.745Z,9.42
2023-04-22T02:26:11.392Z,9.49
2023-04-22T02:28:38.140Z,9.57
2023-04-22T02:31:04.817Z,9.61
2023-04-22T02:33:31.731Z,9.78
2023-04-22T02:35:58.426Z,9.71
2023-04-22T02:38:25.123Z,9.45
2023-04-22T02:40:51.777Z,9.32
2023-04-22T02:43:18.424Z,9.13
2023-04-22T02:45:45.084Z,9.33
2023-04-22T02:48:11.844Z,9.42
2023-04-22T02:50:38.578Z,9.29
2023-04-22T02:53:05.245Z,9.27
2023-04-22T02:55:31.961Z,9.27
2023-04-22T02:57:58.598Z,9.17
2023-04-22T03:00:25.323Z,9.14
2023-04-22T03:02:52.185Z,9.35
2023-04-22T03:05:19.123Z,9.31
2023-04-22T03:07:45.775Z,9.23
2023-04-22T03:10:12.417Z,9.17
2023-04-22T03:12:39.210Z,9.11
2023-04-22T03:15:06.603Z,9.08
2023-04-22T03:17:33.364Z,9.19
2023-04-22T03:20:00.249Z,9.12
2023-04-22T03:22:26.977Z,9.15
2023-04-22T03:24:53.635Z,8.76
2023-04-22T03:27:20.463Z,8.79
2023-04-22T03:29:47.074Z,8.81
2023-04-22T03:32:13.913Z,8.77
2023-04-22T03:34:40.609Z,8.76
2023-04-22T03:37:07.217Z,8.54
2023-04-22T03:39:33.933Z,8.55
2023-04-22T03:42:00.669Z,8.59
2023-04-22T03:44:27.392Z,8.50
2023-04-22T03:46:54.134Z,8.33
2023-04-22T03:49:21.334Z,8.58
2023-04-22T03:51:47.950Z,8.65
2023-04-22T03:54:14.696Z,8.63
2023-04-22T03:56:41.438Z,8.59
2023-04-22T03:59:08.296Z,8.51
2023-04-22T04:01:34.911Z,8.35
2023-04-22T04:04:01.853Z,8.30
2023-04-22T04:06:28.755Z,8.32
2023-04-22T04:08:55.354Z,8.50
2023-04-22T04:11:22.016Z,8.43
2023-04-22T04:13:48.724Z,8.68
2023-04-22T04:16:15.493Z,8.83
2023-04-22T04:18:42.333Z,8.81
2023-04-22T04:21:09.015Z,8.95
2023-04-22T04:23:35.752Z,8.77
2023-04-22T04:26:02.429Z,8.56
2023-04-22T04:28:29.456Z,8.71
2023-04-22T04:30:56.169Z,8.69
2023-04-22T04:33:22.822Z,8.59
2023-04-22T04:35:49.564Z,8.38
2023-04-22T04:38:16.209Z,8.34
2023-04-22T04:40:42.796Z,8.01
2023-04-22T04:43:09.658Z,8.33
2023-04-22T04:45:36.720Z,8.24
2023-04-22T04:48:03.419Z,8.02
2023-04-22T04:50:30.082Z,7.90
2023-04-22T04:52:56.727Z,7.88
2023-04-22T04:55:23.393Z,8.11
2023-04-22T04:57:50.197Z,8.03
2023-04-22T05:00:17.071Z,8.05
2023-04-22T05:02:43.914Z,8.04
2023-04-22T05:05:10.834Z,8.07
2023-04-22T05:07:37.567Z,8.37
2023-04-22T05:10:04.682Z,8.05
2023-04-22T05:12:31.332Z,8.11
2023-04-22T05:14:58.239Z,7.89
2023-04-22T05:17:25.312Z,8.13
2023-04-22T05:19:51.972Z,8.00
2023-04-22T05:22:18.786Z,8.43
2023-04-22T05:24:45.437Z,8.46
2023-04-22T05:27:12.367Z,8.41
2023-04-22T05:29:41.426Z,8.39
2023-04-22T05:32:08.560Z,8.52
2023-04-22T05:34:35.986Z,8.48
2023-04-22T05:37:03.845Z,8.50
2023-04-22T05:39:30.590Z,8.85
2023-04-22T05:41:57.472Z,8.72
2023-04-22T05:44:24.130Z,8.86
2023-04-22T05:46:50.817Z,8.87
2023-04-22T05:49:17.502Z,8.93
2023-04-22T05:51:44.193Z,9.33
2023-04-22T05:54:10.870Z,9.04
2023-04-22T05:56:37.515Z,8.97
2023-04-22T05:59:04.261Z,9.05
2023-04-22T06:01:31.177Z,9.21
2023-04-22T06:03:58.120Z,9.33
2023-04-22T06:06:24.915Z,9.54
2023-04-22T06:08:51.593Z,9.81
2023-04-22T06:11:18.527Z,9.97
2023-04-22T06:13:45.348Z,10.13
2023-04-22T06:16:12.166Z,10.29
2023-04-22T06:18:38.854Z,10.35
2023-04-22T06:21:05.685Z,10.54
2023-04-22T06:23:32.436Z,10.66
2023-04-22T06:25:59.123Z,11.38
2023-04-22T06:28:25.726Z,11.85
2023-04-22T06:30:52.423Z,11.73
2023-04-22T06:33:19.112Z,11.44
2023-04-22T06:35:45.864Z,11.60
2023-04-22T06:38:12.527Z,11.73
2023-04-22T06:40:39.255Z,11.70
2023-04-22T06:43:05.900Z,11.80
2023-04-22T06:45:32.582Z,12.29
2023-04-22T06:47:59.365Z,12.44
2023-04-22T06:50:26.169Z,12.56
2023-04-22T06:52:55.024Z,13.07
2023-04-22T06:55:21.851Z,13.14
2023-04-22T06:57:48.645Z,13.24
2023-04-22T07:00:15.778Z,13.40
2023-04-22T07:02:42.608Z,13.79
2023-04-22T07:05:09.485Z,14.02
2023-04-22T07:07:36.231Z,13.69
2023-04-22T07:10:02.929Z,13.47
2023-04-22T07:12:29.855Z,13.76
2023-04-22T07:14:56.572Z,14.11
2023-04-22T07:17:23.215Z,14.03
2023-04-22T07:19:49.859Z,14.14
2023-04-22T07:22:16.502Z,14.52
2023-04-22T07:24:43.349Z,14.74
2023-04-22T07:27:10.138Z,14.92
2023-04-22T07:29:37.148Z,15.13
2023-04-22T07:32:04.030Z,15.16
2023-04-22T07:34:30.736Z,15.29
2023-04-22T07:36:57.519Z,15.31
2023-04-22T07:39:24.164Z,14.91
2023-04-22T07:41:50.985Z,15.13
2023-04-22T07:44:17.669Z,15.37
2023-04-22T07:46:44.369Z,15.53
2023-04-22T07:49:10.994Z,15.63
2023-04-22T07:51:37.714Z,15.33
2023-04-22T07:54:04.373Z,15.22
2023-04-22T07:56:31.093Z,15.47
2023-04-22T07:58:57.705Z,15.97
2023-04-22T08:01:24.432Z,15.92
2023-04-22T08:03:51.490Z,15.99
2023-04-22T08:06:18.496Z,16.00
2023-04-22T08:08:45.154Z,15.80
2023-04-22T08:11:11.833Z,16.35
2023-04-22T08:13:38.500Z,16.30
2023-04-22T08:16:05.662Z,16.51
2023-04-22T08:18:32.524Z,16.56
2023-04-22T08:20:59.247Z,16.35
2023-04-22T08:23:25.986Z,16.15
2023-04-22T08:25:52.706Z,16.41
2023-04-22T08:28:19.420Z,16.25
2023-04-22T08:30:46.097Z,16.53
2023-04-22T08:33:12.733Z,16.81
2023-04-22T08:35:40.586Z,16.46
2023-04-22T08:38:07.181Z,16.87
2023-04-22T08:40:35.539Z,16.93
2023-04-22T08:43:02.756Z,16.78
2023-04-22T08:45:30.117Z,16.81
2023-04-22T08:47:57.469Z,17.13
2023-04-22T08:50:24.110Z,17.12
2023-04-22T08:52:50.798Z,17.34
2023-04-22T08:55:17.589Z,17.34
2023-04-22T08:57:45.050Z,16.91
2023-04-22T09:00:12.096Z,17.17
2023-04-22T09:02:42.069Z,17.42
2023-04-22T09:05:10.511Z,17.26
2023-04-22T09:07:38.555Z,17.55
2023-04-22T09:10:05.827Z,17.93
2023-04-22T09:12:32.485Z,18.03
2023-04-22T09:14:59.327Z,18.08
2023-04-22T09:17:33.966Z,18.30
2023-04-22T09:20:03.164Z,18.00
2023-04-22T09:22:38.890Z,17.51
2023-04-22T09:25:05.976Z,17.92
2023-04-22T09:27:32.635Z,18.28
2023-04-22T09:29:59.248Z,18.25
2023-04-22T09:34:54.455Z,18.72
2023-04-22T09:37:33.256Z,18.68
2023-04-22T09:40:09.603Z,18.88
2023-04-22T09:42:51.562Z,18.38
2023-04-22T09:45:29.352Z,18.43
2023-04-22T09:47:57.430Z,18.58
2023-04-22T09:50:28.951Z,19.13
2023-04-22T09:53:16.786Z,19.06
2023-04-22T09:55:46.640Z,18.80
2023-04-22T09:58:15.821Z,18.94
2023-04-22T10:00:45.299Z,18.84
2023-04-22T10:03:12.008Z,18.71
2023-04-22T10:05:38.938Z,19.07
2023-04-22T10:08:06.924Z,19.06
2023-04-22T10:10:34.554Z,19.04
2023-04-22T10:13:02.083Z,18.49
2023-04-22T10:15:35.065Z,18.71
2023-04-22T10:18:03.533Z,19.12
2023-04-22T10:20:32.057Z,19.43
2023-04-22T10:22:58.650Z,19.59
2023-04-22T10:25:26.352Z,19.85
2023-04-22T10:28:03.799Z,19.84
2023-04-22T10:30:33.083Z,19.46
2023-04-22T10:33:21.642Z,19.37
2023-04-22T10:36:06.567Z,19.43
2023-04-22T10:38:38.993Z,18.94
2023-04-22T10:41:05.704Z,18.85
2023-04-22T10:43:47.857Z,19.45
2023-04-22T10:46:32.931Z,19.11
2023-04-22T10:49:06.877Z,19.15
2023-04-22T10:51:43.708Z,19.10
2023-04-22T10:54:31.596Z,19.38
2023-04-22T10:57:09.648Z,19.14
2023-04-22T10:59:44.140Z,18.95
2023-04-22T11:02:13.881Z,18.53
2023-04-22T11:04:40.797Z,18.47
2023-04-22T11:07:19.711Z,18.52
2023-04-22T11:09:50.764Z,17.70
2023-04-22T11:12:37.692Z,17.71
2023-04-22T11:15:14.878Z,18.19
2023-04-22T11:17:46.818Z,18.36
2023-04-22T11:20:15.284Z,18.36
2023-04-22T11:22:43.863Z,18.38
2023-04-22T11:25:10.985Z,18.06
2023-04-22T11:27:38.900Z,18.33
2023-04-22T11:30:13.470Z,18.26
2023-04-22T11:32:45.468Z,17.91
2023-04-22T11:35:24.049Z,18.53
2023-04-22T11:38:04.992Z,18.68
2023-04-22T11:40:39.413Z,18.57
2023-04-22T11:43:09.064Z,19.15
2023-04-22T11:45:37.356Z,19.66
2023-04-22T11:48:07.373Z,20.08
2023-04-22T11:50:36.269Z,20.04
2023-04-22T11:53:05.453Z,20.35
2023-04-22T11:55:34.674Z,20.52
2023-04-22T11:58:07.879Z,20.35
2023-04-22T12:00:36.370Z,19.98
2023-04-22T12:03:06.734Z,19.92
2023-04-22T12:05:39.007Z,19.58
2023-04-22T12:08:22.978Z,19.95
2023-04-22T12:10:55.556Z,19.56
2023-04-22T12:13:23.732Z,19.93
2023-04-22T12:15:55.290Z,20.35
2023-04-22T12:18:52.007Z,20.43
2023-04-22T12:21:26.005Z,20.23
2023-04-22T12:23:55.086Z,19.35
2023-04-22T12:26:26.694Z,18.81
2023-04-22T12:28:56.098Z,19.35
2023-04-22T12:31:23.007Z,19.18
2023-04-22T12:33:50.202Z,18.63
2023-04-22T12:36:18.621Z,18.43
2023-04-22T12:38:45.245Z,18.60
2023-04-22T12:41:11.881Z,18.55
2023-04-22T12:43:38.753Z,18.73
2023-04-22T12:46:07.303Z,18.90
2023-04-22T12:48:35.235Z,19.20
2023-04-22T12:51:01.897Z,19.68
2023-04-22T12:53:28.839Z,19.61
2023-04-22T12:55:56.043Z,19.03
2023-04-22T12:58:23.100Z,19.16
2023-04-22T13:00:49.749Z,18.91
2023-04-22T13:03:16.605Z,19.15
2023-04-22T13:05:45.052Z,19.54
2023-04-22T13:08:11.868Z,20.03
2023-04-22T13:10:38.521Z,19.83
2023-04-22T13:15:35.028Z,20.13
2023-04-22T13:18:02.506Z,20.41
2023-04-22T13:20:29.341Z,19.65
2023-04-22T13:22:56.044Z,19.83
2023-04-22T13:25:22.806Z,20.37
2023-04-22T13:27:49.497Z,20.74
2023-04-22T13:30:16.354Z,20.94
2023-04-22T13:32:43.229Z,20.08
2023-04-22T13:35:09.857Z,20.21
2023-04-22T13:37:36.749Z,20.27
2023-04-22T13:40:04.398Z,20.19
2023-04-22T13:42:31.081Z,20.25
2023-04-22T13:44:57.778Z,20.08
2023-04-22T13:47:24.504Z,19.89
2023-04-22T13:49:51.196Z,20.02
2023-04-22T13:52:17.899Z,20.09
2023-04-22T13:54:44.617Z,19.84
2023-04-22T13:57:11.268Z,19.74
2023-04-22T13:59:37.903Z,19.75
2023-04-22T14:02:04.672Z,19.74
2023-04-22T14:04:31.392Z,19.92
2023-04-22T14:06:58.190Z,19.92
2023-04-22T14:09:24.815Z,20.06
2023-04-22T14:11:51.708Z,19.73
2023-04-22T14:14:18.370Z,19.49
2023-04-22T14:16:45.074Z,19.14
2023-04-22T14:19:11.813Z,18.75
2023-04-22T14:21:38.446Z,18.90
2023-04-22T14:24:05.166Z,19.39
2023-04-22T14:26:31.930Z,19.24
2023-04-22T14:28:58.886Z,19.21
2023-04-22T14:31:26.175Z,19.16
2023-04-22T14:33:52.845Z,19.37
2023-04-22T14:36:19.445Z,19.53
2023-04-22T14:38:46.143Z,19.35
2023-04-22T14:41:13.039Z,19.33
2023-04-22T14:43:39.774Z,19.45
2023-04-22T14:46:06.687Z,19.53
2023-04-22T14:48:33.353Z,19.69
2023-04-22T14:50:59.960Z,20.12
2023-04-22T14:53:26.809Z,20.08
2023-04-22T14:55:53.680Z,19.91
2023-04-22T14:58:20.339Z,19.79
2023-04-22T15:00:47.063Z,19.42
2023-04-22T15:03:14.019Z,19.79
2023-04-22T15:05:40.887Z,19.61
2023-04-22T15:08:07.494Z,19.40
2023-04-22T15:10:34.130Z,19.49
2023-04-22T15:13:00.849Z,19.72
2023-04-22T15:15:27.573Z,20.05
2023-04-22T15:17:54.348Z,20.27
2023-04-22T15:20:21.020Z,20.21
2023-04-22T15:22:49.161Z,20.07
2023-04-22T15:25:18.016Z,20.18
2023-04-22T15:27:45.035Z,20.24
2023-04-22T15:30:11.779Z,20.23
2023-04-22T15:32:38.661Z,20.04
2023-04-22T15:35:07.348Z,20.09
2023-04-22T15:37:34.194Z,19.87
2023-04-22T15:40:00.807Z,20.06
2023-04-22T15:42:27.682Z,20.13
2023-04-22T15:44:54.312Z,19.70
2023-04-22T15:47:21.205Z,19.59
2023-04-22T15:49:47.933Z,19.81
2023-04-22T15:52:14.579Z,20.01
2023-04-22T15:54:41.278Z,19.84
2023-04-22T15:57:07.885Z,19.88
2023-04-22T15:59:34.506Z,19.62
2023-04-22T16:02:01.483Z,19.85
2023-04-22T16:04:28.708Z,19.83
2023-04-22T16:06:55.430Z,19.88
2023-04-22T16:09:22.017Z,19.90
2023-04-22T16:11:48.688Z,19.95
2023-04-22T16:14:15.358Z,20.00
2023-04-22T16:16:43.577Z,20.39
2023-04-22T16:19:10.267Z,20.43
2023-04-22T16:21:37.225Z,20.32
2023-04-22T16:24:03.922Z,19.65
2023-04-22T16:26:30.600Z,19.47
2023-04-22T16:28:57.258Z,19.40
2023-04-22T16:31:23.961Z,19.42
2023-04-22T16:33:53.574Z,19.60
2023-04-22T16:36:20.207Z,19.14
2023-04-22T16:38:46.950Z,18.91
2023-04-22T16:41:13.626Z,18.88
2023-04-22T16:43:41.191Z,18.86
2023-04-22T16:46:08.094Z,18.85
2023-04-22T16:48:34.779Z,18.56
2023-04-22T16:51:01.404Z,18.62
2023-04-22T16:53:28.045Z,18.70
2023-04-22T16:55:54.710Z,18.47
2023-04-22T16:58:21.277Z,18.48
2023-04-22T17:00:47.957Z,18.30
2023-04-22T17:03:14.826Z,18.30
2023-04-22T17:05:41.577Z,18.14
2023-04-22T17:08:08.306Z,18.09
2023-04-22T17:10:35.061Z,18.24
2023-04-22T17:13:01.661Z,17.92
2023-04-22T17:15:28.236Z,17.93
2023-04-22T17:17:54.920Z,17.71
2023-04-22T17:20:21.617Z,17.63
2023-04-22T17:22:48.231Z,17.67
2023-04-22T17:25:14.805Z,17.36
2023-04-22T17:27:41.478Z,17.21
2023-04-22T17:30:08.677Z,17.23
2023-04-22T17:32:35.379Z,17.21
2023-04-22T17:35:02.060Z,17.07
2023-04-22T17:37:28.719Z,16.81
2023-04-22T17:39:55.489Z,16.73
2023-04-22T17:42:23.742Z,16.72
2023-04-22T17:44:53.977Z,16.67
2023-04-22T17:47:20.569Z,16.73
2023-04-22T17:49:47.191Z,16.57
2023-04-22T17:52:13.876Z,16.46
2023-04-22T17:54:40.626Z,16.39
2023-04-22T17:57:07.217Z,16.40
2023-04-22T17:59:33.952Z,16.33
2023-04-22T18:02:01.623Z,16.29
2023-04-22T18:04:28.473Z,16.27
2023-04-22T18:06:55.083Z,16.05
2023-04-22T18:09:21.961Z,16.09
2023-04-22T18:11:48.857Z,16.13
2023-04-22T18:14:15.635Z,16.00
2023-04-22T18:16:42.281Z,15.95
2023-04-22T18:19:08.907Z,15.90
2023-04-22T18:21:36.854Z,15.84
2023-04-22T18:24:05.011Z,15.80
2023-04-22T18:26:31.683Z,15.70
2023-04-22T18:28:58.305Z,15.52
2023-04-22T18:31:25.426Z,15.38
2023-04-22T18:33:52.061Z,15.30
2023-04-22T18:36:18.728Z,15.21
2023-04-22T18:38:45.337Z,15.32
2023-04-22T18:41:11.970Z,15.17
2023-04-22T18:43:38.620Z,15.13
2023-04-22T18:46:05.383Z,14.91
2023-04-22T18:48:32.117Z,14.93
2023-04-22T18:50:58.735Z,14.87
2023-04-22T18:53:25.393Z,14.97
2023-04-22T18:55:52.090Z,14.76
2023-04-22T18:58:18.728Z,14.71
2023-04-22T19:00:45.475Z,14.68
2023-04-22T19:03:12.317Z,14.54
2023-04-22T19:05:39.136Z,14.53
2023-04-22T19:08:05.767Z,14.60
2023-04-22T19:10:32.715Z,14.41
2023-04-22T19:12:59.339Z,14.41
2023-04-22T19:15:26.088Z,14.48
2023-04-22T19:17:52.739Z,14.34
2023-04-22T19:20:19.519Z,14.26
2023-04-22T19:22:46.273Z,14.24
2023-04-22T19:25:12.942Z,14.22
2023-04-22T19:27:39.553Z,14.14
2023-04-22T19:30:06.858Z,14.08
2023-04-22T19:32:33.663Z,13.97
2023-04-22T19:35:03.186Z,13.89
2023-04-22T19:37:30.638Z,13.87
2023-04-22T19:39:57.339Z,13.92
2023-04-22T19:42:23.941Z,13.84
2023-04-22T19:44:50.897Z,13.96
2023-04-22T19:47:17.842Z,13.77
2023-04-22T19:49:44.759Z,13.65
2023-04-22T19:52:11.602Z,13.60
2023-04-22T19:54:40.180Z,13.46
2023-04-22T19:57:07.547Z,13.45
2023-04-22T19:59:34.560Z,13.31
2023-04-22T20:02:01.462Z,13.11
2023-04-22T20:04:28.608Z,13.08
2023-04-22T20:06:55.422Z,13.15
2023-04-22T20:09:22.234Z,12.94
2023-04-22T20:11:48.954Z,12.91
2023-04-22T20:14:16.318Z,12.87
2023-04-22T20:16:43.275Z,12.85
2023-04-22T20:19:10.056Z,12.98
2023-04-22T20:21:36.899Z,12.99
2023-04-22T20:24:04.142Z,13.21
2023-04-22T20:26:32.432Z,12.96
2023-04-22T20:29:00.854Z,12.96
2023-04-22T20:31:27.701Z,12.61
2023-04-22T20:33:54.481Z,12.63
2023-04-22T20:36:21.181Z,12.63
2023-04-22T20:38:49.759Z,12.29
2023-04-22T20:41:17.177Z,12.32
2023-04-22T20:43:43.932Z,12.28
2023-04-22T20:46:10.653Z,12.15
2023-04-22T20:48:37.322Z,12.14
2023-04-22T20:51:04.192Z,12.04
2023-04-22T20:53:30.828Z,12.03
2023-04-22T20:55:57.469Z,11.84
2023-04-22T20:58:24.081Z,11.88
2023-04-22T21:00:50.771Z,11.98
2023-04-22T21:03:18.626Z,12.03
2023-04-22T21:05:46.705Z,12.16
2023-04-22T21:08:25.148Z,12.23
2023-04-22T21:10:54.158Z,12.11
2023-04-22T21:13:21.557Z,11.97
2023-04-22T21:15:58.981Z,11.98
2023-04-22T21:18:26.837Z,11.96
2023-04-22T21:20:56.191Z,11.94
2023-04-22T21:23:26.708Z,11.86
2023-04-22T21:25:57.909Z,11.87
2023-04-22T21:28:24.941Z,11.78
2023-04-22T21:30:51.852Z,11.71
2023-04-22T21:33:18.476Z,11.69
2023-04-22T21:35:45.297Z,11.58
2023-04-22T21:38:12.295Z,11.54
2023-04-22T21:40:39.093Z,11.47
2023-04-22T21:43:05.762Z,11.42
2023-04-22T21:45:32.392Z,11.40
2023-04-22T21:47:59.179Z,11.51
2023-04-22T21:50:26.604Z,11.50
2023-04-22T21:52:53.340Z,11.44
2023-04-22T21:55:20.141Z,11.54
2023-04-22T21:57:47.349Z,11.50
2023-04-22T22:00:14.499Z,11.37
2023-04-22T22:02:48.398Z,11.24
2023-04-22T22:05:16.115Z,11.22
2023-04-22T22:07:43.435Z,11.23
2023-04-22T22:10:15.875Z,11.15
2023-04-22T22:12:42.525Z,11.27
2023-04-22T22:15:09.538Z,11.23
2023-04-22T22:17:36.230Z,11.20
2023-04-22T22:20:02.953Z,11.15
2023-04-22T22:22:29.827Z,10.99
2023-04-22T22:24:56.597Z,10.91
2023-04-22T22:27:23.640Z,11.09
2023-04-22T22:29:50.301Z,10.89
2023-04-22T22:32:17.052Z,10.82
2023-04-22T22:34:43.789Z,10.80
2023-04-22T22:37:10.456Z,10.79
2023-04-22T22:39:37.070Z,10.79
2023-04-22T22:42:03.769Z,10.65
2023-04-22T22:44:30.460Z,10.69
2023-04-22T22:46:57.373Z,10.59
2023-04-22T22:49:24.103Z,10.72
2023-04-22T22:51:50.744Z,10.50
2023-04-22T22:54:17.418Z,10.48
2023-04-22T22:56:44.108Z,10.29
2023-04-22T22:59:10.779Z,10.16
2023-04-22T23:01:38.063Z,10.17
2023-04-22T23:04:05.250Z,10.16
2023-04-22T23:06:32.113Z,10.23
2023-04-22T23:08:59.082Z,10.21
2023-04-22T23:11:25.742Z,10.08
2023-04-22T23:13:52.471Z,10.14
2023-04-22T23:16:19.127Z,9.96
2023-04-22T23:18:46.819Z,9.92
2023-04-22T23:21:14.579Z,9.93
2023-04-22T23:23:41.349Z,9.93
2023-04-22T23:26:08.315Z,10.02
2023-04-22T23:28:35.369Z,10.00
2023-04-22T23:31:03.865Z,9.92
2023-04-22T23:33:31.405Z,9.83
2023-04-22T23:36:00.907Z,9.82
2023-04-22T23:38:27.840Z,9.76
2023-04-22T23:40:54.530Z,9.85
2023-04-22T23:43:21.127Z,9.87
2023-04-22T23:45:47.904Z,9.92
2023-04-22T23:48:14.967Z,9.86
2023-04-22T23:50:41.649Z,9.87
2023-04-22T23:53:08.318Z,9.72
2023-04-22T23:55:35.578Z,9.54
2023-04-22T23:58:02.379Z,9.60
